sensor_id;sensor_type;location;lat;lon;timestamp;temperature;humidity
18426;DHT22;9340;48.756;9.226;2023-11-21T00:01:15;8.80;99.90
18426;DHT22;9340;48.756;9.226;2023-11-21T00:03:42;8.90;99.90
18426;DHT22;9340;48.756;9.226;2023-11-21T00:06:10;8.90;99.90
18426;DHT22;9340;48.756;9.226;2023-11-21T00:08:37;8.80;99.90
18426;DHT22;9340;48.756;9.226;2023-11-21T00:11:04;8.90;99.90
18426;DHT22;9340;48.756;9.226;2023-11-21T00:13:31;8.90;99.90
18426;DHT22;9340;48.756;9.226;2023-11-21T00:15:58;8.90;99.90
18426;DHT22;9340;48.756;9.226;2023-11-21T00:18:25;8.90;99.90
18426;DHT22;9340;48.756;9.226;2023-11-21T00:20:51;8.90;99.90
18426;DHT22;9340;48.756;9.226;2023-11-21T00:23:19;8.80;99.90
18426;DHT22;9340;48.756;9.226;2023-11-21T00:25:46;8.80;99.90
18426;DHT22;9340;48.756;9.226;2023-11-21T00:28:13;8.70;99.90
18426;DHT22;9340;48.756;9.226;2023-11-21T00:30:40;8.60;99.90
18426;DHT22;9340;48.756;9.226;2023-11-21T00:33:07;8.60;99.90
18426;DHT22;9340;48.756;9.226;2023-11-21T00:35:34;8.60;99.90
18426;DHT22;9340;48.756;9.226;2023-11-21T00:38:00;8.60;99.90
18426;DHT22;9340;48.756;9.226;2023-11-21T00:40:27;8.70;99.90
18426;DHT22;9340;48.756;9.226;2023-11-21T00:42:54;8.70;99.90
18426;DHT22;9340;48.756;9.226;2023-11-21T00:45:21;8.80;99.90
18426;DHT22;9340;48.756;9.226;2023-11-21T00:47:48;8.90;99.90
18426;DHT22;9340;48.756;9.226;2023-11-21T00:50:14;8.90;99.90
18426;DHT22;9340;48.756;9.226;2023-11-21T00:52:42;8.90;99.90
18426;DHT22;9340;48.756;9.226;2023-11-21T00:55:09;9.00;99.90
18426;DHT22;9340;48.756;9.226;2023-11-21T00:57:38;8.90;99.90
18426;DHT22;9340;48.756;9.226;2023-11-21T01:00:06;9.00;99.90
18426;DHT22;9340;48.756;9.226;2023-11-21T01:02:36;9.00;99.90
18426;DHT22;9340;48.756;9.226;2023-11-21T01:05:03;9.00;99.90
18426;DHT22;9340;48.756;9.226;2023-11-21T01:07:30;9.00;99.90
18426;DHT22;9340;48.756;9.226;2023-11-21T01:09:57;9.00;99.90
18426;DHT22;9340;48.756;9.226;2023-11-21T01:12:23;9.10;99.90
18426;DHT22;9340;48.756;9.226;2023-11-21T01:14:52;9.10;99.90
18426;DHT22;9340;48.756;9.226;2023-11-21T01:17:18;9.10;99.90
18426;DHT22;9340;48.756;9.226;2023-11-21T01:19:48;9.10;99.90
18426;DHT22;9340;48.756;9.226;2023-11-21T01:22:14;9.10;99.90
18426;DHT22;9340;48.756;9.226;2023-11-21T01:24:41;9.00;99.90
18426;DHT22;9340;48.756;9.226;2023-11-21T01:27:08;9.00;99.90
18426;DHT22;9340;48.756;9.226;2023-11-21T01:29:35;9.00;99.90
18426;DHT22;9340;48.756;9.226;2023-11-21T01:32:04;9.00;99.90
18426;DHT22;9340;48.756;9.226;2023-11-21T01:34:33;9.00;99.90
18426;DHT22;9340;48.756;9.226;2023-11-21T01:37:00;9.10;99.90
18426;DHT22;9340;48.756;9.226;2023-11-21T01:39:27;9.10;99.90
18426;DHT22;9340;48.756;9.226;2023-11-21T01:41:54;9.00;99.90
18426;DHT22;9340;48.756;9.226;2023-11-21T01:44:21;9.10;99.90
18426;DHT22;9340;48.756;9.226;2023-11-21T01:46:47;9.10;99.90
18426;DHT22;9340;48.756;9.226;2023-11-21T01:49:16;9.20;99.90
18426;DHT22;9340;48.756;9.226;2023-11-21T01:51:44;9.10;99.90
18426;DHT22;9340;48.756;9.226;2023-11-21T01:54:14;9.10;99.90
18426;DHT22;9340;48.756;9.226;2023-11-21T01:56:42;9.10;99.90
18426;DHT22;9340;48.756;9.226;2023-11-21T01:59:10;9.20;99.90
18426;DHT22;9340;48.756;9.226;2023-11-21T02:01:37;9.20;99.90
18426;DHT22;9340;48.756;9.226;2023-11-21T02:04:03;9.20;99.90
18426;DHT22;9340;48.756;9.226;2023-11-21T02:06:32;9.20;99.90
18426;DHT22;9340;48.756;9.226;2023-11-21T02:08:59;9.20;99.90
18426;DHT22;9340;48.756;9.226;2023-11-21T02:11:26;9.20;99.90
18426;DHT22;9340;48.756;9.226;2023-11-21T02:13:53;9.30;99.90
18426;DHT22;9340;48.756;9.226;2023-11-21T02:16:20;9.20;99.90
18426;DHT22;9340;48.756;9.226;2023-11-21T02:18:47;9.20;99.90
18426;DHT22;9340;48.756;9.226;2023-11-21T02:21:14;9.20;99.90
18426;DHT22;9340;48.756;9.226;2023-11-21T02:23:43;9.10;99.90
18426;DHT22;9340;48.756;9.226;2023-11-21T02:26:11;9.20;99.90
18426;DHT22;9340;48.756;9.226;2023-11-21T02:28:39;9.10;99.90
18426;DHT22;9340;48.756;9.226;2023-11-21T02:31:06;9.10;99.90
18426;DHT22;9340;48.756;9.226;2023-11-21T02:33:33;9.10;99.90
18426;DHT22;9340;48.756;9.226;2023-11-21T02:36:00;9.10;99.90
18426;DHT22;9340;48.756;9.226;2023-11-21T02:38:26;9.10;99.90
18426;DHT22;9340;48.756;9.226;2023-11-21T02:40:56;9.10;99.90
18426;DHT22;9340;48.756;9.226;2023-11-21T02:43:23;9.00;99.90
18426;DHT22;9340;48.756;9.226;2023-11-21T02:45:50;9.00;99.90
18426;DHT22;9340;48.756;9.226;2023-11-21T02:48:17;9.10;99.90
18426;DHT22;9340;48.756;9.226;2023-11-21T02:50:43;9.00;99.90
18426;DHT22;9340;48.756;9.226;2023-11-21T02:53:10;9.00;99.90
18426;DHT22;9340;48.756;9.226;2023-11-21T02:55:38;9.00;99.90
18426;DHT22;9340;48.756;9.226;2023-11-21T02:58:06;9.00;99.90
18426;DHT22;9340;48.756;9.226;2023-11-21T03:00:32;8.90;99.90
18426;DHT22;9340;48.756;9.226;2023-11-21T03:02:59;8.80;99.90
18426;DHT22;9340;48.756;9.226;2023-11-21T03:05:26;8.70;99.90
18426;DHT22;9340;48.756;9.226;2023-11-21T03:07:54;8.60;99.90
18426;DHT22;9340;48.756;9.226;2023-11-21T03:10:21;8.70;99.90
18426;DHT22;9340;48.756;9.226;2023-11-21T03:12:48;8.60;99.90
18426;DHT22;9340;48.756;9.226;2023-11-21T03:15:16;8.60;99.90
18426;DHT22;9340;48.756;9.226;2023-11-21T03:17:43;8.60;99.90
18426;DHT22;9340;48.756;9.226;2023-11-21T03:20:10;8.60;99.90
18426;DHT22;9340;48.756;9.226;2023-11-21T03:22:37;8.60;99.90
18426;DHT22;9340;48.756;9.226;2023-11-21T03:25:04;8.60;99.90
18426;DHT22;9340;48.756;9.226;2023-11-21T03:27:31;8.60;99.90
18426;DHT22;9340;48.756;9.226;2023-11-21T03:29:58;8.70;99.90
18426;DHT22;9340;48.756;9.226;2023-11-21T03:32:26;8.70;99.90
18426;DHT22;9340;48.756;9.226;2023-11-21T03:34:54;8.70;99.90
18426;DHT22;9340;48.756;9.226;2023-11-21T03:37:21;8.80;99.90
18426;DHT22;9340;48.756;9.226;2023-11-21T03:39:48;8.80;99.90
18426;DHT22;9340;48.756;9.226;2023-11-21T03:42:15;8.90;99.90
18426;DHT22;9340;48.756;9.226;2023-11-21T03:44:41;8.90;99.90
18426;DHT22;9340;48.756;9.226;2023-11-21T03:47:08;8.90;99.90
18426;DHT22;9340;48.756;9.226;2023-11-21T03:49:36;8.90;99.90
18426;DHT22;9340;48.756;9.226;2023-11-21T03:52:04;8.90;99.90
18426;DHT22;9340;48.756;9.226;2023-11-21T03:54:31;8.90;99.90
18426;DHT22;9340;48.756;9.226;2023-11-21T03:56:57;8.90;99.90
18426;DHT22;9340;48.756;9.226;2023-11-21T03:59:24;8.90;99.90
18426;DHT22;9340;48.756;9.226;2023-11-21T04:01:50;8.90;99.90
18426;DHT22;9340;48.756;9.226;2023-11-21T04:04:17;8.80;99.90
18426;DHT22;9340;48.756;9.226;2023-11-21T04:06:46;8.90;99.90
18426;DHT22;9340;48.756;9.226;2023-11-21T04:09:13;8.90;99.90
18426;DHT22;9340;48.756;9.226;2023-11-21T04:11:39;8.90;99.90
18426;DHT22;9340;48.756;9.226;2023-11-21T04:14:08;8.90;99.90
18426;DHT22;9340;48.756;9.226;2023-11-21T04:16:35;8.90;99.90
18426;DHT22;9340;48.756;9.226;2023-11-21T04:19:01;8.90;99.90
18426;DHT22;9340;48.756;9.226;2023-11-21T04:21:28;9.00;99.90
18426;DHT22;9340;48.756;9.226;2023-11-21T04:23:56;9.10;99.90
18426;DHT22;9340;48.756;9.226;2023-11-21T04:26:23;9.00;99.90
18426;DHT22;9340;48.756;9.226;2023-11-21T04:28:49;9.10;99.90
18426;DHT22;9340;48.756;9.226;2023-11-21T04:31:16;9.00;99.90
18426;DHT22;9340;48.756;9.226;2023-11-21T04:33:43;9.00;99.90
18426;DHT22;9340;48.756;9.226;2023-11-21T04:36:10;9.00;99.90
18426;DHT22;9340;48.756;9.226;2023-11-21T04:38:37;9.00;99.90
18426;DHT22;9340;48.756;9.226;2023-11-21T04:41:05;9.00;99.90
18426;DHT22;9340;48.756;9.226;2023-11-21T04:43:32;9.00;99.90
18426;DHT22;9340;48.756;9.226;2023-11-21T04:45:58;9.00;99.90
18426;DHT22;9340;48.756;9.226;2023-11-21T04:48:25;9.00;99.90
18426;DHT22;9340;48.756;9.226;2023-11-21T04:50:52;9.00;99.90
18426;DHT22;9340;48.756;9.226;2023-11-21T04:53:19;8.90;99.90
18426;DHT22;9340;48.756;9.226;2023-11-21T04:55:45;8.80;99.90
18426;DHT22;9340;48.756;9.226;2023-11-21T04:58:15;8.80;99.90
18426;DHT22;9340;48.756;9.226;2023-11-21T05:00:42;8.70;99.90
18426;DHT22;9340;48.756;9.226;2023-11-21T05:03:09;8.70;99.90
18426;DHT22;9340;48.756;9.226;2023-11-21T05:05:37;8.60;99.90
18426;DHT22;9340;48.756;9.226;2023-11-21T05:08:04;8.60;99.90
18426;DHT22;9340;48.756;9.226;2023-11-21T05:10:31;8.60;99.90
18426;DHT22;9340;48.756;9.226;2023-11-21T05:12:57;8.50;99.90
18426;DHT22;9340;48.756;9.226;2023-11-21T05:15:25;8.50;99.90
18426;DHT22;9340;48.756;9.226;2023-11-21T05:17:53;8.40;99.90
18426;DHT22;9340;48.756;9.226;2023-11-21T05:20:20;8.40;99.90
18426;DHT22;9340;48.756;9.226;2023-11-21T05:22:47;8.50;99.90
18426;DHT22;9340;48.756;9.226;2023-11-21T05:25:14;8.50;99.90
18426;DHT22;9340;48.756;9.226;2023-11-21T05:27:43;8.60;99.90
18426;DHT22;9340;48.756;9.226;2023-11-21T05:30:11;8.60;99.90
18426;DHT22;9340;48.756;9.226;2023-11-21T05:32:40;8.70;99.90
18426;DHT22;9340;48.756;9.226;2023-11-21T05:35:08;8.70;99.90
18426;DHT22;9340;48.756;9.226;2023-11-21T05:37:38;8.70;99.90
18426;DHT22;9340;48.756;9.226;2023-11-21T05:40:06;8.80;99.90
18426;DHT22;9340;48.756;9.226;2023-11-21T05:42:33;8.80;99.90
18426;DHT22;9340;48.756;9.226;2023-11-21T05:45:01;8.70;99.90
18426;DHT22;9340;48.756;9.226;2023-11-21T05:47:36;8.70;99.90
18426;DHT22;9340;48.756;9.226;2023-11-21T05:50:05;8.70;99.90
18426;DHT22;9340;48.756;9.226;2023-11-21T05:52:35;8.70;99.90
18426;DHT22;9340;48.756;9.226;2023-11-21T05:55:01;8.70;99.90
18426;DHT22;9340;48.756;9.226;2023-11-21T05:57:28;8.70;99.90
18426;DHT22;9340;48.756;9.226;2023-11-21T05:59:55;8.70;99.90
18426;DHT22;9340;48.756;9.226;2023-11-21T06:02:22;8.60;99.90
18426;DHT22;9340;48.756;9.226;2023-11-21T06:04:49;8.60;99.90
18426;DHT22;9340;48.756;9.226;2023-11-21T06:07:17;8.60;99.90
18426;DHT22;9340;48.756;9.226;2023-11-21T06:09:44;8.50;99.90
18426;DHT22;9340;48.756;9.226;2023-11-21T06:12:11;8.50;99.90
18426;DHT22;9340;48.756;9.226;2023-11-21T06:14:38;8.40;99.90
18426;DHT22;9340;48.756;9.226;2023-11-21T06:17:04;8.40;99.90
18426;DHT22;9340;48.756;9.226;2023-11-21T06:19:31;8.30;99.90
18426;DHT22;9340;48.756;9.226;2023-11-21T06:21:58;8.30;99.90
18426;DHT22;9340;48.756;9.226;2023-11-21T06:24:26;8.40;99.90
18426;DHT22;9340;48.756;9.226;2023-11-21T06:26:53;8.40;99.90
18426;DHT22;9340;48.756;9.226;2023-11-21T06:29:20;8.40;99.90
18426;DHT22;9340;48.756;9.226;2023-11-21T06:31:47;8.40;99.90
18426;DHT22;9340;48.756;9.226;2023-11-21T06:34:13;8.50;99.90
18426;DHT22;9340;48.756;9.226;2023-11-21T06:36:40;8.50;99.90
18426;DHT22;9340;48.756;9.226;2023-11-21T06:39:07;8.50;99.90
18426;DHT22;9340;48.756;9.226;2023-11-21T06:41:35;8.50;99.90
18426;DHT22;9340;48.756;9.226;2023-11-21T06:44:04;8.50;99.90
18426;DHT22;9340;48.756;9.226;2023-11-21T06:46:31;8.60;99.90
18426;DHT22;9340;48.756;9.226;2023-11-21T06:48:57;8.50;99.90
18426;DHT22;9340;48.756;9.226;2023-11-21T06:51:24;8.60;99.90
18426;DHT22;9340;48.756;9.226;2023-11-21T06:53:50;8.60;99.90
18426;DHT22;9340;48.756;9.226;2023-11-21T06:56:18;8.70;99.90
18426;DHT22;9340;48.756;9.226;2023-11-21T06:58:46;8.70;99.90
18426;DHT22;9340;48.756;9.226;2023-11-21T07:01:13;8.70;99.90
18426;DHT22;9340;48.756;9.226;2023-11-21T07:03:40;8.80;99.90
18426;DHT22;9340;48.756;9.226;2023-11-21T07:06:08;8.80;99.90
18426;DHT22;9340;48.756;9.226;2023-11-21T07:08:35;8.90;99.90
18426;DHT22;9340;48.756;9.226;2023-11-21T07:11:02;8.90;99.90
18426;DHT22;9340;48.756;9.226;2023-11-21T07:13:29;8.90;99.90
18426;DHT22;9340;48.756;9.226;2023-11-21T07:15:57;8.90;99.90
18426;DHT22;9340;48.756;9.226;2023-11-21T07:18:24;8.90;99.90
18426;DHT22;9340;48.756;9.226;2023-11-21T07:20:51;8.90;99.90
18426;DHT22;9340;48.756;9.226;2023-11-21T07:23:18;9.00;99.90
18426;DHT22;9340;48.756;9.226;2023-11-21T07:25:44;9.00;99.90
18426;DHT22;9340;48.756;9.226;2023-11-21T07:28:11;8.90;99.90
18426;DHT22;9340;48.756;9.226;2023-11-21T07:30:38;8.90;99.90
18426;DHT22;9340;48.756;9.226;2023-11-21T07:33:06;9.00;99.90
18426;DHT22;9340;48.756;9.226;2023-11-21T07:35:32;9.10;99.90
18426;DHT22;9340;48.756;9.226;2023-11-21T07:37:59;9.20;99.90
18426;DHT22;9340;48.756;9.226;2023-11-21T07:40:26;9.20;99.90
18426;DHT22;9340;48.756;9.226;2023-11-21T07:42:53;9.20;99.90
18426;DHT22;9340;48.756;9.226;2023-11-21T07:45:23;9.30;99.90
18426;DHT22;9340;48.756;9.226;2023-11-21T07:47:49;9.40;99.90
18426;DHT22;9340;48.756;9.226;2023-11-21T07:50:17;9.40;99.90
18426;DHT22;9340;48.756;9.226;2023-11-21T07:52:45;9.50;99.90
18426;DHT22;9340;48.756;9.226;2023-11-21T07:55:12;9.50;99.90
18426;DHT22;9340;48.756;9.226;2023-11-21T07:57:39;9.50;99.90
18426;DHT22;9340;48.756;9.226;2023-11-21T08:00:07;9.60;99.90
18426;DHT22;9340;48.756;9.226;2023-11-21T08:02:37;9.60;99.90
18426;DHT22;9340;48.756;9.226;2023-11-21T08:05:04;9.60;99.90
18426;DHT22;9340;48.756;9.226;2023-11-21T08:07:33;9.70;99.90
18426;DHT22;9340;48.756;9.226;2023-11-21T08:10:00;9.70;99.90
18426;DHT22;9340;48.756;9.226;2023-11-21T08:12:27;9.80;99.90
18426;DHT22;9340;48.756;9.226;2023-11-21T08:14:54;9.80;99.90
18426;DHT22;9340;48.756;9.226;2023-11-21T08:17:20;9.80;99.90
18426;DHT22;9340;48.756;9.226;2023-11-21T08:19:48;9.80;99.90
18426;DHT22;9340;48.756;9.226;2023-11-21T08:22:16;9.90;99.90
18426;DHT22;9340;48.756;9.226;2023-11-21T08:24:45;9.90;99.90
18426;DHT22;9340;48.756;9.226;2023-11-21T08:27:12;9.80;99.90
18426;DHT22;9340;48.756;9.226;2023-11-21T08:29:41;9.80;99.90
18426;DHT22;9340;48.756;9.226;2023-11-21T08:32:08;9.80;99.90
18426;DHT22;9340;48.756;9.226;2023-11-21T08:34:35;9.80;99.90
18426;DHT22;9340;48.756;9.226;2023-11-21T08:37:02;9.90;99.90
18426;DHT22;9340;48.756;9.226;2023-11-21T08:39:28;10.00;99.90
18426;DHT22;9340;48.756;9.226;2023-11-21T08:41:57;9.90;99.90
18426;DHT22;9340;48.756;9.226;2023-11-21T08:44:23;9.80;99.90
18426;DHT22;9340;48.756;9.226;2023-11-21T08:46:50;9.70;99.90
18426;DHT22;9340;48.756;9.226;2023-11-21T08:49:17;9.70;99.90
18426;DHT22;9340;48.756;9.226;2023-11-21T08:51:44;9.70;99.90
18426;DHT22;9340;48.756;9.226;2023-11-21T08:54:11;9.70;99.90
18426;DHT22;9340;48.756;9.226;2023-11-21T08:56:37;9.70;99.90
18426;DHT22;9340;48.756;9.226;2023-11-21T08:59:05;9.90;99.90
18426;DHT22;9340;48.756;9.226;2023-11-21T09:01:33;10.10;99.90
18426;DHT22;9340;48.756;9.226;2023-11-21T09:04:00;10.40;99.90
18426;DHT22;9340;48.756;9.226;2023-11-21T09:06:27;10.60;99.90
18426;DHT22;9340;48.756;9.226;2023-11-21T09:08:54;10.60;99.90
18426;DHT22;9340;48.756;9.226;2023-11-21T09:11:21;10.70;99.90
18426;DHT22;9340;48.756;9.226;2023-11-21T09:13:50;10.70;99.90
18426;DHT22;9340;48.756;9.226;2023-11-21T09:16:19;10.60;99.90
18426;DHT22;9340;48.756;9.226;2023-11-21T09:18:45;10.80;99.90
18426;DHT22;9340;48.756;9.226;2023-11-21T09:21:12;11.10;99.90
18426;DHT22;9340;48.756;9.226;2023-11-21T09:23:39;11.30;99.90
18426;DHT22;9340;48.756;9.226;2023-11-21T09:26:06;11.40;99.90
18426;DHT22;9340;48.756;9.226;2023-11-21T09:28:33;11.40;99.90
18426;DHT22;9340;48.756;9.226;2023-11-21T09:31:03;11.70;99.90
18426;DHT22;9340;48.756;9.226;2023-11-21T09:33:35;12.00;99.90
18426;DHT22;9340;48.756;9.226;2023-11-21T09:36:04;12.10;99.90
18426;DHT22;9340;48.756;9.226;2023-11-21T09:38:31;12.20;99.90
18426;DHT22;9340;48.756;9.226;2023-11-21T09:40:58;12.20;99.90
18426;DHT22;9340;48.756;9.226;2023-11-21T09:43:27;12.10;99.90
18426;DHT22;9340;48.756;9.226;2023-11-21T09:45:59;12.10;99.90
18426;DHT22;9340;48.756;9.226;2023-11-21T09:48:26;11.90;99.90
18426;DHT22;9340;48.756;9.226;2023-11-21T09:50:54;11.60;99.90
18426;DHT22;9340;48.756;9.226;2023-11-21T09:53:21;11.40;99.90
18426;DHT22;9340;48.756;9.226;2023-11-21T09:55:51;11.30;99.90
18426;DHT22;9340;48.756;9.226;2023-11-21T09:58:18;11.50;99.90
18426;DHT22;9340;48.756;9.226;2023-11-21T10:00:47;11.60;99.90
18426;DHT22;9340;48.756;9.226;2023-11-21T10:03:15;11.80;99.90
18426;DHT22;9340;48.756;9.226;2023-11-21T10:05:43;11.90;99.90
18426;DHT22;9340;48.756;9.226;2023-11-21T10:08:13;11.90;99.90
18426;DHT22;9340;48.756;9.226;2023-11-21T10:10:46;11.90;99.90
18426;DHT22;9340;48.756;9.226;2023-11-21T10:13:15;11.90;99.90
18426;DHT22;9340;48.756;9.226;2023-11-21T10:15:50;11.90;99.90
18426;DHT22;9340;48.756;9.226;2023-11-21T10:18:17;11.80;99.90
18426;DHT22;9340;48.756;9.226;2023-11-21T10:20:44;11.80;99.90
18426;DHT22;9340;48.756;9.226;2023-11-21T10:23:18;11.80;99.90
18426;DHT22;9340;48.756;9.226;2023-11-21T10:25:46;11.80;99.90
18426;DHT22;9340;48.756;9.226;2023-11-21T10:28:14;11.90;99.90
18426;DHT22;9340;48.756;9.226;2023-11-21T10:30:41;12.00;99.90
18426;DHT22;9340;48.756;9.226;2023-11-21T10:33:08;12.10;99.90
18426;DHT22;9340;48.756;9.226;2023-11-21T10:35:44;12.10;99.90
18426;DHT22;9340;48.756;9.226;2023-11-21T10:38:17;12.20;99.90
18426;DHT22;9340;48.756;9.226;2023-11-21T10:40:46;12.10;99.90
18426;DHT22;9340;48.756;9.226;2023-11-21T10:43:14;12.00;99.90
18426;DHT22;9340;48.756;9.226;2023-11-21T10:45:42;11.60;99.90
18426;DHT22;9340;48.756;9.226;2023-11-21T10:48:10;11.00;99.90
18426;DHT22;9340;48.756;9.226;2023-11-21T10:50:37;10.80;99.90
18426;DHT22;9340;48.756;9.226;2023-11-21T10:53:04;10.60;99.90
18426;DHT22;9340;48.756;9.226;2023-11-21T10:55:33;10.50;99.90
18426;DHT22;9340;48.756;9.226;2023-11-21T10:58:01;10.50;99.90
18426;DHT22;9340;48.756;9.226;2023-11-21T11:00:30;10.50;99.90
18426;DHT22;9340;48.756;9.226;2023-11-21T11:02:58;10.60;99.90
18426;DHT22;9340;48.756;9.226;2023-11-21T11:05:27;10.60;99.90
18426;DHT22;9340;48.756;9.226;2023-11-21T11:07:58;10.40;99.90
18426;DHT22;9340;48.756;9.226;2023-11-21T11:10:27;10.40;99.90
18426;DHT22;9340;48.756;9.226;2023-11-21T11:12:56;10.50;99.90
18426;DHT22;9340;48.756;9.226;2023-11-21T11:15:24;10.70;99.90
18426;DHT22;9340;48.756;9.226;2023-11-21T11:17:52;10.80;99.90
18426;DHT22;9340;48.756;9.226;2023-11-21T11:20:23;10.90;99.90
18426;DHT22;9340;48.756;9.226;2023-11-21T11:23:04;11.10;99.90
18426;DHT22;9340;48.756;9.226;2023-11-21T11:25:47;11.30;99.90
18426;DHT22;9340;48.756;9.226;2023-11-21T11:28:22;11.70;99.90
18426;DHT22;9340;48.756;9.226;2023-11-21T11:31:04;11.90;99.90
18426;DHT22;9340;48.756;9.226;2023-11-21T11:33:38;12.20;99.90
18426;DHT22;9340;48.756;9.226;2023-11-21T11:36:09;12.40;99.90
18426;DHT22;9340;48.756;9.226;2023-11-21T11:38:37;12.40;99.90
18426;DHT22;9340;48.756;9.226;2023-11-21T11:41:05;12.50;99.90
18426;DHT22;9340;48.756;9.226;2023-11-21T11:43:33;12.40;99.90
18426;DHT22;9340;48.756;9.226;2023-11-21T11:46:09;12.40;99.90
18426;DHT22;9340;48.756;9.226;2023-11-21T11:48:38;12.40;99.90
18426;DHT22;9340;48.756;9.226;2023-11-21T11:51:06;12.40;99.90
18426;DHT22;9340;48.756;9.226;2023-11-21T11:53:37;12.40;99.90
18426;DHT22;9340;48.756;9.226;2023-11-21T11:56:26;12.30;99.90
18426;DHT22;9340;48.756;9.226;2023-11-21T11:58:56;12.20;99.90
18426;DHT22;9340;48.756;9.226;2023-11-21T12:01:24;12.00;99.90
18426;DHT22;9340;48.756;9.226;2023-11-21T12:04:26;11.70;99.90
18426;DHT22;9340;48.756;9.226;2023-11-21T12:07:13;11.60;99.90
18426;DHT22;9340;48.756;9.226;2023-11-21T12:09:40;11.40;99.90
18426;DHT22;9340;48.756;9.226;2023-11-21T12:12:08;11.20;99.90
18426;DHT22;9340;48.756;9.226;2023-11-21T12:14:36;11.20;99.90
18426;DHT22;9340;48.756;9.226;2023-11-21T12:17:03;11.20;99.90
18426;DHT22;9340;48.756;9.226;2023-11-21T12:19:30;11.20;99.90
18426;DHT22;9340;48.756;9.226;2023-11-21T12:21:57;11.30;99.90
18426;DHT22;9340;48.756;9.226;2023-11-21T12:24:24;11.20;99.90
18426;DHT22;9340;48.756;9.226;2023-11-21T12:26:51;11.20;99.90
18426;DHT22;9340;48.756;9.226;2023-11-21T12:29:18;11.30;99.90
18426;DHT22;9340;48.756;9.226;2023-11-21T12:31:48;11.20;99.90
18426;DHT22;9340;48.756;9.226;2023-11-21T12:34:15;11.20;99.90
18426;DHT22;9340;48.756;9.226;2023-11-21T12:36:43;11.10;99.90
18426;DHT22;9340;48.756;9.226;2023-11-21T12:39:11;11.10;99.90
18426;DHT22;9340;48.756;9.226;2023-11-21T12:41:37;11.20;99.90
18426;DHT22;9340;48.756;9.226;2023-11-21T12:44:09;11.30;99.90
18426;DHT22;9340;48.756;9.226;2023-11-21T12:46:41;11.30;99.90
18426;DHT22;9340;48.756;9.226;2023-11-21T12:49:12;11.50;99.90
18426;DHT22;9340;48.756;9.226;2023-11-21T12:51:43;11.70;99.90
18426;DHT22;9340;48.756;9.226;2023-11-21T12:54:10;11.70;99.90
18426;DHT22;9340;48.756;9.226;2023-11-21T12:56:38;11.70;99.90
18426;DHT22;9340;48.756;9.226;2023-11-21T12:59:05;11.70;99.90
18426;DHT22;9340;48.756;9.226;2023-11-21T13:01:31;11.70;99.90
18426;DHT22;9340;48.756;9.226;2023-11-21T13:03:58;11.60;99.90
18426;DHT22;9340;48.756;9.226;2023-11-21T13:06:26;11.40;99.90
18426;DHT22;9340;48.756;9.226;2023-11-21T13:08:55;11.20;99.90
18426;DHT22;9340;48.756;9.226;2023-11-21T13:11:22;11.00;99.90
18426;DHT22;9340;48.756;9.226;2023-11-21T13:13:52;11.00;99.90
18426;DHT22;9340;48.756;9.226;2023-11-21T13:16:19;11.00;99.90
18426;DHT22;9340;48.756;9.226;2023-11-21T13:18:47;11.00;99.90
18426;DHT22;9340;48.756;9.226;2023-11-21T13:21:13;11.00;99.90
18426;DHT22;9340;48.756;9.226;2023-11-21T13:23:43;11.00;99.90
18426;DHT22;9340;48.756;9.226;2023-11-21T13:26:11;11.10;99.90
18426;DHT22;9340;48.756;9.226;2023-11-21T13:28:39;11.20;99.90
18426;DHT22;9340;48.756;9.226;2023-11-21T13:31:11;11.40;99.90
18426;DHT22;9340;48.756;9.226;2023-11-21T13:33:46;11.50;99.90
18426;DHT22;9340;48.756;9.226;2023-11-21T13:36:17;11.60;99.90
18426;DHT22;9340;48.756;9.226;2023-11-21T13:38:49;11.60;99.90
18426;DHT22;9340;48.756;9.226;2023-11-21T13:41:16;11.60;99.90
18426;DHT22;9340;48.756;9.226;2023-11-21T13:43:43;11.30;99.90
18426;DHT22;9340;48.756;9.226;2023-11-21T13:46:16;11.00;99.90
18426;DHT22;9340;48.756;9.226;2023-11-21T13:48:47;10.80;99.90
18426;DHT22;9340;48.756;9.226;2023-11-21T13:51:16;10.70;99.90
18426;DHT22;9340;48.756;9.226;2023-11-21T13:53:43;10.60;99.90
18426;DHT22;9340;48.756;9.226;2023-11-21T13:56:13;10.40;99.90
18426;DHT22;9340;48.756;9.226;2023-11-21T13:58:44;10.40;99.90
18426;DHT22;9340;48.756;9.226;2023-11-21T14:01:16;10.30;99.90
18426;DHT22;9340;48.756;9.226;2023-11-21T14:04:06;10.30;99.90
18426;DHT22;9340;48.756;9.226;2023-11-21T14:06:45;10.30;99.90
18426;DHT22;9340;48.756;9.226;2023-11-21T14:09:14;10.20;99.90
18426;DHT22;9340;48.756;9.226;2023-11-21T14:11:49;10.20;99.90
18426;DHT22;9340;48.756;9.226;2023-11-21T14:14:17;10.20;99.90
18426;DHT22;9340;48.756;9.226;2023-11-21T14:16:44;10.20;99.90
18426;DHT22;9340;48.756;9.226;2023-11-21T14:19:11;10.20;99.90
18426;DHT22;9340;48.756;9.226;2023-11-21T14:21:41;10.20;99.90
18426;DHT22;9340;48.756;9.226;2023-11-21T14:24:09;10.20;99.90
18426;DHT22;9340;48.756;9.226;2023-11-21T14:26:39;10.20;99.90
18426;DHT22;9340;48.756;9.226;2023-11-21T14:29:07;10.20;99.90
18426;DHT22;9340;48.756;9.226;2023-11-21T14:31:34;10.10;99.90
18426;DHT22;9340;48.756;9.226;2023-11-21T14:34:01;10.10;99.90
18426;DHT22;9340;48.756;9.226;2023-11-21T14:36:28;10.10;99.90
18426;DHT22;9340;48.756;9.226;2023-11-21T14:38:56;10.00;99.90
18426;DHT22;9340;48.756;9.226;2023-11-21T14:41:22;10.00;99.90
18426;DHT22;9340;48.756;9.226;2023-11-21T14:43:50;10.00;99.90
18426;DHT22;9340;48.756;9.226;2023-11-21T14:46:20;9.90;99.90
18426;DHT22;9340;48.756;9.226;2023-11-21T14:48:46;9.90;99.90
18426;DHT22;9340;48.756;9.226;2023-11-21T14:51:24;9.80;99.90
18426;DHT22;9340;48.756;9.226;2023-11-21T14:53:57;9.90;99.90
18426;DHT22;9340;48.756;9.226;2023-11-21T14:56:26;9.90;99.90
18426;DHT22;9340;48.756;9.226;2023-11-21T14:58:57;9.90;99.90
18426;DHT22;9340;48.756;9.226;2023-11-21T15:01:26;9.80;99.90
18426;DHT22;9340;48.756;9.226;2023-11-21T15:04:09;9.90;99.90
18426;DHT22;9340;48.756;9.226;2023-11-21T15:06:46;9.80;99.90
18426;DHT22;9340;48.756;9.226;2023-11-21T15:09:13;9.80;99.90
18426;DHT22;9340;48.756;9.226;2023-11-21T15:11:58;9.80;99.90
18426;DHT22;9340;48.756;9.226;2023-11-21T15:14:32;9.90;99.90
18426;DHT22;9340;48.756;9.226;2023-11-21T15:17:03;9.90;99.90
18426;DHT22;9340;48.756;9.226;2023-11-21T15:19:30;9.90;99.90
18426;DHT22;9340;48.756;9.226;2023-11-21T15:21:57;10.00;99.90
18426;DHT22;9340;48.756;9.226;2023-11-21T15:24:24;9.90;99.90
18426;DHT22;9340;48.756;9.226;2023-11-21T15:26:51;10.00;99.90
18426;DHT22;9340;48.756;9.226;2023-11-21T15:29:18;10.00;99.90
18426;DHT22;9340;48.756;9.226;2023-11-21T15:31:47;10.00;99.90
18426;DHT22;9340;48.756;9.226;2023-11-21T15:34:15;9.90;99.90
18426;DHT22;9340;48.756;9.226;2023-11-21T15:36:42;9.90;99.90
18426;DHT22;9340;48.756;9.226;2023-11-21T15:39:09;9.90;99.90
18426;DHT22;9340;48.756;9.226;2023-11-21T15:41:37;9.80;99.90
18426;DHT22;9340;48.756;9.226;2023-11-21T15:44:05;9.90;99.90
18426;DHT22;9340;48.756;9.226;2023-11-21T15:46:35;9.80;99.90
18426;DHT22;9340;48.756;9.226;2023-11-21T15:49:03;9.80;99.90
18426;DHT22;9340;48.756;9.226;2023-11-21T15:51:39;9.80;99.90
18426;DHT22;9340;48.756;9.226;2023-11-21T15:54:06;9.80;99.90
18426;DHT22;9340;48.756;9.226;2023-11-21T15:56:33;9.80;99.90
18426;DHT22;9340;48.756;9.226;2023-11-21T15:59:01;9.80;99.90
18426;DHT22;9340;48.756;9.226;2023-11-21T16:01:27;9.90;99.90